Andover, Connecticut
Current Conditions -  °F | °C
As of 8:18 AM on Thursday 30 Oct 2014 (Local Time) from KIJD Reporting Station
Broken Clouds Broken Clouds  
Wind Chill: 38°   Ceiling: 7500
Heat Index: 38°   Visibility: 9mi
Dew Point: 36°   Wind: 0mph
Humidity: 93%   Direction: NA
Pressure: 29.98"   Gusts: NA
Location:  41.74°N, 72.37°W
Report Text: KIJD 301218Z AUTO 00000KT 9SM FEW001 BKN075 03/02 A2998 RMK AO2 T00330022
Loading
Personal Weather Stations






























Interactive Weather Map
Tropical Storm Tracking
New forecast layout! Learn more

10-Day Weather Forecast

Advertisements
Track Severe Weather on mobile